Time;durP1;ratioP1;P1;durP2;ratioP2;P2;SDS_P1;SDS_P2;PMS_P1;PMS_P2;Temp;Humidity;BMP_temperature;BMP_pressure;BME280_temperature;BME280_humidity;BME280_pressure;Samples;Min_cycle;Max_cycle;Signal;HPM_P1;HPM_P2
2022/04/24 00:01:27;;;;;;;3.20;2.90;;;9.70;99.90;;;;;;5010668;28;20207;-81
2022/04/24 00:03:53;;;;;;;3.60;2.70;;;9.60;99.90;;;;;;5011038;28;20183;-82
2022/04/24 00:06:19;;;;;;;3.13;2.60;;;9.60;99.90;;;;;;5028109;28;20189;-81
2022/04/24 00:08:45;;;;;;;3.13;2.80;;;9.70;99.90;;;;;;5008116;28;20281;-82
2022/04/24 00:11:10;;;;;;;3.67;2.70;;;9.60;99.90;;;;;;5025188;28;20195;-80
2022/04/24 00:13:41;;;;;;;3.00;2.70;;;9.50;99.90;;;;;;5025888;28;20266;-81
2022/04/24 00:16:10;;;;;;;4.43;2.70;;;9.50;99.90;;;;;;5007997;28;20209;-82
2022/04/24 00:18:38;;;;;;;3.30;3.00;;;9.40;99.90;;;;;;5007185;28;20174;-81
2022/04/24 00:21:04;;;;;;;3.77;2.80;;;9.50;99.90;;;;;;5007762;28;20202;-82
2022/04/24 00:23:30;;;;;;;3.97;2.73;;;9.40;99.90;;;;;;5025332;28;20183;-82
2022/04/24 00:25:56;;;;;;;4.67;2.97;;;9.40;99.90;;;;;;5024201;28;20182;-81
2022/04/24 00:28:22;;;;;;;4.03;2.83;;;9.30;99.90;;;;;;5006834;28;20185;-81
2022/04/24 00:30:47;;;;;;;3.07;2.77;;;9.30;99.90;;;;;;5007540;28;20210;-81
2022/04/24 00:33:13;;;;;;;3.40;2.73;;;9.30;99.90;;;;;;5008073;28;20187;-82
2022/04/24 00:35:38;;;;;;;3.20;2.90;;;9.20;99.90;;;;;;5025451;28;20199;-82
2022/04/24 00:38:04;;;;;;;3.87;2.57;;;9.30;99.90;;;;;;5025249;28;20230;-82
2022/04/24 00:40:30;;;;;;;4.53;2.80;;;9.20;99.90;;;;;;5007232;28;20194;-81
2022/04/24 00:42:55;;;;;;;2.70;2.47;;;9.20;99.90;;;;;;5008292;28;20182;-83
2022/04/24 00:45:21;;;;;;;4.00;2.70;;;9.20;99.90;;;;;;5024933;28;20258;-82
2022/04/24 00:47:47;;;;;;;5.63;2.60;;;9.10;99.90;;;;;;5026497;28;20209;-84
2022/04/24 00:50:13;;;;;;;3.57;2.80;;;9.20;99.90;;;;;;5010487;28;20260;-82
2022/04/24 00:52:38;;;;;;;9.30;3.27;;;9.20;99.90;;;;;;5012586;28;20179;-81
2022/04/24 00:55:05;;;;;;;3.40;2.60;;;9.10;99.90;;;;;;5030888;28;20582;-83
2022/04/24 00:57:31;;;;;;;3.10;2.60;;;9.10;99.90;;;;;;5013563;28;20183;-81
2022/04/24 00:59:57;;;;;;;3.50;2.90;;;9.00;99.90;;;;;;5012905;28;20186;-82
2022/04/24 01:02:23;;;;;;;4.30;2.80;;;9.00;99.90;;;;;;5031070;28;20711;-80
2022/04/24 01:04:49;;;;;;;4.10;2.50;;;8.90;99.90;;;;;;5013871;28;20661;-81
2022/04/24 01:07:14;;;;;;;3.93;2.90;;;8.90;99.90;;;;;;5013602;28;20186;-84
2022/04/24 01:09:40;;;;;;;3.60;2.60;;;9.00;99.90;;;;;;5012710;28;20179;-82
2022/04/24 01:12:07;;;;;;;3.73;2.67;;;9.00;99.90;;;;;;5028794;28;20324;-81
2022/04/24 01:14:34;;;;;;;3.50;2.80;;;8.90;99.90;;;;;;5027854;28;20248;-81
2022/04/24 01:17:01;;;;;;;4.33;2.43;;;8.90;99.90;;;;;;5012267;28;20360;-81
2022/04/24 01:19:26;;;;;;;3.53;2.67;;;8.80;99.90;;;;;;5010522;28;20183;-81
2022/04/24 01:21:53;;;;;;;3.10;2.50;;;8.60;99.90;;;;;;5029408;28;20255;-82
2022/04/24 01:24:25;;;;;;;3.03;2.60;;;8.50;99.90;;;;;;5011091;28;20649;-82
2022/04/24 01:26:51;;;;;;;5.27;2.83;;;8.30;99.90;;;;;;5027697;28;20178;-81
2022/04/24 01:29:17;;;;;;;3.70;2.80;;;8.20;99.90;;;;;;5028422;28;20183;-82
2022/04/24 01:31:44;;;;;;;3.03;2.73;;;8.00;99.90;;;;;;5028213;28;20314;-82
2022/04/24 01:34:10;;;;;;;3.10;2.80;;;7.90;99.90;;;;;;5028465;28;20193;-81
2022/04/24 01:36:36;;;;;;;4.30;2.60;;;7.80;99.90;;;;;;5028272;28;20203;-81
2022/04/24 01:39:02;;;;;;;3.27;2.97;;;7.90;99.90;;;;;;5010879;28;20200;-82
2022/04/24 01:41:29;;;;;;;3.10;2.80;;;7.80;99.90;;;;;;5010830;28;20205;-81
2022/04/24 01:43:54;;;;;;;4.70;3.13;;;7.80;99.90;;;;;;5009575;28;20183;-81
2022/04/24 01:46:20;;;;;;;3.80;3.30;;;7.50;99.90;;;;;;5009729;28;20190;-82
2022/04/24 01:48:46;;;;;;;5.63;3.10;;;7.50;99.90;;;;;;5028543;28;20186;-81
2022/04/24 01:51:13;;;;;;;3.80;2.67;;;7.30;99.90;;;;;;5028420;28;20222;-83
2022/04/24 01:53:38;;;;;;;5.10;2.80;;;7.20;99.90;;;;;;5028188;28;20181;-80
2022/04/24 01:56:05;;;;;;;2.93;2.63;;;7.20;99.90;;;;;;5028751;28;20207;-81
2022/04/24 01:58:32;;;;;;;3.27;2.97;;;7.10;99.90;;;;;;5010471;28;20266;-82
2022/04/24 02:00:58;;;;;;;3.27;2.97;;;7.10;99.90;;;;;;5028525;28;20895;-82
2022/04/24 02:03:25;;;;;;;2.93;2.60;;;7.00;99.90;;;;;;5010084;28;20260;-81
2022/04/24 02:05:51;;;;;;;3.73;2.97;;;6.90;99.90;;;;;;5010249;28;20726;-81
2022/04/24 02:08:16;;;;;;;4.10;2.97;;;7.00;99.90;;;;;;5010532;28;20187;-81
2022/04/24 02:10:42;;;;;;;2.87;2.57;;;7.00;99.90;;;;;;5009830;28;20214;-82
2022/04/24 02:13:08;;;;;;;5.10;2.90;;;6.90;99.90;;;;;;5009774;28;20191;-81
2022/04/24 02:15:34;;;;;;;3.70;3.17;;;6.90;99.90;;;;;;5025803;28;20622;-81
2022/04/24 02:18:00;;;;;;;3.73;2.73;;;7.00;99.90;;;;;;5009494;28;20214;-82
2022/04/24 02:20:28;;;;;;;3.67;3.07;;;7.00;99.90;;;;;;5010068;28;20226;-80
2022/04/24 02:22:55;;;;;;;3.93;2.90;;;7.10;99.90;;;;;;5009298;28;20275;-81
2022/04/24 02:25:21;;;;;;;2.90;2.57;;;7.10;99.90;;;;;;5010059;28;20269;-82
2022/04/24 02:27:47;;;;;;;3.77;3.10;;;7.20;99.90;;;;;;5009689;28;20318;-82
2022/04/24 02:30:13;;;;;;;6.23;2.77;;;7.10;99.90;;;;;;5010274;28;20598;-81
2022/04/24 02:32:38;;;;;;;4.23;2.77;;;7.10;99.90;;;;;;5010021;28;20183;-81
2022/04/24 02:35:04;;;;;;;2.93;2.63;;;6.90;99.90;;;;;;5026550;28;20672;-81
2022/04/24 02:37:32;;;;;;;4.00;3.17;;;6.80;99.90;;;;;;5027277;28;20321;-81
2022/04/24 02:39:58;;;;;;;3.67;2.80;;;6.80;99.90;;;;;;5009740;28;20175;-82
2022/04/24 02:42:24;;;;;;;4.93;3.03;;;6.80;99.90;;;;;;5028500;28;20183;-84
2022/04/24 02:44:50;;;;;;;3.93;2.83;;;6.80;99.90;;;;;;5031606;28;20221;-81
2022/04/24 02:47:16;;;;;;;3.40;3.10;;;6.90;99.90;;;;;;5009760;28;20183;-81
2022/04/24 02:49:41;;;;;;;3.60;3.20;;;6.80;99.90;;;;;;5009587;28;20178;-81
2022/04/24 02:52:07;;;;;;;4.17;3.10;;;6.60;99.90;;;;;;5009514;28;20286;-80
2022/04/24 02:54:33;;;;;;;5.33;2.83;;;6.60;99.90;;;;;;5009230;28;20190;-81
2022/04/24 02:56:59;;;;;;;3.43;2.70;;;6.70;99.90;;;;;;5009033;28;20234;-81
2022/04/24 02:59:25;;;;;;;3.37;3.07;;;6.70;99.90;;;;;;5009151;28;20186;-81
2022/04/24 03:01:54;;;;;;;3.20;2.90;;;6.70;99.90;;;;;;5008099;28;20210;-80
2022/04/24 03:04:19;;;;;;;3.57;3.20;;;6.60;99.90;;;;;;5009398;28;20183;-80
2022/04/24 03:06:45;;;;;;;4.63;2.80;;;6.50;99.90;;;;;;5026070;28;20282;-82
2022/04/24 03:09:11;;;;;;;4.13;3.27;;;6.50;99.90;;;;;;5026584;28;20207;-81
2022/04/24 03:11:37;;;;;;;3.97;3.30;;;6.40;99.90;;;;;;5008141;28;20214;-82
2022/04/24 03:14:02;;;;;;;3.40;2.70;;;6.50;99.90;;;;;;5008532;28;20222;-81
2022/04/24 03:16:28;;;;;;;3.23;2.70;;;6.40;99.90;;;;;;5025696;28;20209;-81
2022/04/24 03:18:54;;;;;;;4.13;2.97;;;6.40;99.90;;;;;;5026636;28;20567;-80
2022/04/24 03:21:19;;;;;;;3.40;2.97;;;6.40;99.90;;;;;;5025320;28;20203;-81
2022/04/24 03:23:45;;;;;;;4.77;2.93;;;6.40;99.90;;;;;;5008738;28;20187;-81
2022/04/24 03:26:13;;;;;;;4.00;3.30;;;6.40;99.90;;;;;;5008552;28;20186;-80
2022/04/24 03:28:40;;;;;;;3.20;2.87;;;6.40;99.90;;;;;;5025792;28;20542;-81
2022/04/24 03:31:06;;;;;;;3.80;3.10;;;6.50;99.90;;;;;;5007710;28;20210;-82
2022/04/24 03:33:31;;;;;;;4.23;3.10;;;6.50;99.90;;;;;;5008081;28;20569;-80
2022/04/24 03:35:57;;;;;;;3.77;3.00;;;6.40;99.90;;;;;;5008146;28;20218;-81
2022/04/24 03:38:23;;;;;;;3.40;2.80;;;6.40;99.90;;;;;;5007756;28;20616;-82
2022/04/24 03:40:49;;;;;;;3.37;2.90;;;6.40;99.90;;;;;;5007985;28;20256;-81
2022/04/24 03:43:14;;;;;;;3.80;3.27;;;6.30;99.90;;;;;;5008731;28;20585;-80
2022/04/24 03:45:40;;;;;;;4.63;3.30;;;6.20;99.90;;;;;;5007946;28;20218;-80
2022/04/24 03:48:06;;;;;;;3.60;3.30;;;6.30;99.90;;;;;;5008246;28;20191;-80
2022/04/24 03:50:31;;;;;;;3.10;2.80;;;6.60;99.90;;;;;;5025450;28;20706;-80
2022/04/24 03:52:57;;;;;;;3.67;3.10;;;6.50;99.90;;;;;;5008679;28;20190;-80
2022/04/24 03:55:22;;;;;;;4.27;3.50;;;6.60;99.90;;;;;;5007823;28;20572;-81
2022/04/24 03:57:48;;;;;;;3.77;3.37;;;6.60;99.90;;;;;;5007883;28;20192;-81
2022/04/24 04:00:14;;;;;;;4.67;3.43;;;6.80;99.90;;;;;;5025253;28;20210;-81
2022/04/24 04:02:47;;;;;;;4.03;3.13;;;6.80;99.90;;;;;;5008182;28;20190;-81
2022/04/24 04:05:14;;;;;;;5.37;3.60;;;6.80;99.90;;;;;;5008201;28;20190;-81
2022/04/24 04:07:40;;;;;;;3.50;3.20;;;6.80;99.90;;;;;;5024879;28;20872;-81
2022/04/24 04:10:07;;;;;;;4.33;3.20;;;7.00;99.90;;;;;;5025669;28;20297;-82
2022/04/24 04:12:33;;;;;;;4.00;3.23;;;7.00;99.90;;;;;;5007570;28;20980;-82
2022/04/24 04:15:06;;;;;;;3.67;3.03;;;6.90;99.90;;;;;;5025515;28;20183;-81
2022/04/24 04:17:32;;;;;;;6.03;3.27;;;6.90;99.90;;;;;;5023556;28;20221;-81
2022/04/24 04:19:58;;;;;;;4.17;3.47;;;6.90;99.90;;;;;;5007802;28;20203;-83
2022/04/24 04:22:24;;;;;;;4.07;3.50;;;6.80;99.90;;;;;;5007200;28;20596;-82
2022/04/24 04:24:50;;;;;;;5.70;3.50;;;6.80;99.90;;;;;;5007708;28;20178;-83
2022/04/24 04:27:16;;;;;;;4.60;3.20;;;7.00;99.90;;;;;;5010174;28;20190;-81
2022/04/24 04:29:42;;;;;;;4.70;3.63;;;7.10;99.90;;;;;;5012505;28;20187;-82
2022/04/24 04:32:08;;;;;;;6.00;3.37;;;7.00;99.90;;;;;;5030266;28;20207;-84
2022/04/24 04:34:33;;;;;;;4.87;3.63;;;7.00;99.90;;;;;;5012161;28;20657;-79
2022/04/24 04:36:59;;;;;;;5.03;3.20;;;7.10;99.90;;;;;;5029439;28;20202;-82
2022/04/24 04:39:24;;;;;;;4.37;3.07;;;7.00;99.90;;;;;;5028307;28;20240;-81
2022/04/24 04:41:51;;;;;;;3.83;3.07;;;6.90;99.90;;;;;;5011972;28;20206;-81
2022/04/24 04:44:17;;;;;;;4.73;3.30;;;6.90;99.90;;;;;;5012642;28;20178;-81
2022/04/24 04:46:43;;;;;;;5.10;3.30;;;7.00;99.90;;;;;;5010715;28;20190;-82
2022/04/24 04:49:09;;;;;;;3.53;2.83;;;7.10;99.90;;;;;;5030130;28;20179;-83
2022/04/24 04:51:34;;;;;;;3.97;3.30;;;7.10;99.90;;;;;;5012623;28;20213;-82
2022/04/24 04:54:00;;;;;;;4.60;3.23;;;7.30;99.90;;;;;;5012803;28;20195;-82
2022/04/24 04:56:26;;;;;;;3.83;2.83;;;7.50;99.90;;;;;;5029315;28;20203;-80
2022/04/24 04:58:51;;;;;;;3.07;2.77;;;7.90;99.90;;;;;;5011848;28;20183;-84
2022/04/24 05:01:17;;;;;;;5.60;2.83;;;8.30;99.90;;;;;;5011323;28;20191;-81
2022/04/24 05:03:43;;;;;;;3.70;2.77;;;8.80;99.90;;;;;;5011454;28;20232;-82
2022/04/24 05:06:09;;;;;;;3.20;2.90;;;9.40;99.90;;;;;;5011061;28;20193;-82
2022/04/24 05:08:34;;;;;;;4.17;2.97;;;9.90;99.90;;;;;;5011642;28;20190;-82
2022/04/24 05:11:01;;;;;;;3.33;3.03;;;10.30;99.90;;;;;;5010605;28;20213;-82
2022/04/24 05:13:27;;;;;;;4.03;3.13;;;10.00;99.90;;;;;;5010006;28;20675;-82
2022/04/24 05:15:54;;;;;;;4.03;2.73;;;10.20;99.90;;;;;;5011233;28;20202;-82
2022/04/24 05:18:20;;;;;;;4.43;2.42;;;10.40;99.90;;;;;;5026405;28;20186;-83
2022/04/24 05:20:46;;;;;;;3.83;2.55;;;10.80;99.90;;;;;;5012209;28;20290;-85
2022/04/24 05:23:15;;;;;;;2.92;2.65;;;11.00;99.90;;;;;;5028858;28;20201;-82
2022/04/24 05:25:41;;;;;;;3.78;2.78;;;11.10;99.90;;;;;;5010720;28;20590;-83
2022/04/24 05:28:07;;;;;;;3.15;2.63;;;11.40;99.90;;;;;;5011565;28;20201;-83
2022/04/24 05:30:33;;;;;;;2.85;2.20;;;11.70;99.90;;;;;;5010448;28;20260;-86
2022/04/24 05:32:59;;;;;;;4.25;2.80;;;12.10;99.90;;;;;;5012142;28;20187;-85
2022/04/24 05:35:24;;;;;;;2.40;2.10;;;12.40;99.90;;;;;;5010469;28;20214;-81
2022/04/24 05:37:51;;;;;;;4.15;2.60;;;12.50;99.90;;;;;;5009311;28;20198;-83
2022/04/24 05:40:18;;;;;;;3.83;2.40;;;12.60;99.90;;;;;;5010793;28;20195;-83
2022/04/24 05:42:44;;;;;;;4.38;2.95;;;13.20;99.90;;;;;;5009696;28;20209;-83
2022/04/24 05:45:14;;;;;;;5.10;2.38;;;13.70;99.90;;;;;;5010314;28;20297;-83
2022/04/24 05:47:43;;;;;;;2.47;2.28;;;14.20;99.90;;;;;;5009612;28;20179;-82
2022/04/24 05:50:08;;;;;;;4.03;2.50;;;14.00;99.90;;;;;;5010672;28;20187;-83
2022/04/24 05:52:34;;;;;;;4.32;3.00;;;14.00;99.90;;;;;;5027906;28;20189;-84
2022/04/24 05:54:59;;;;;;;2.72;2.42;;;14.00;99.90;;;;;;5010357;28;20190;-85
2022/04/24 05:57:25;;;;;;;3.30;2.92;;;14.00;99.90;;;;;;5008463;28;20190;-83
2022/04/24 05:59:51;;;;;;;2.83;2.60;;;14.40;99.90;;;;;;5028974;28;20194;-83
2022/04/24 06:02:16;;;;;;;3.20;2.53;;;14.60;99.90;;;;;;5010605;28;20179;-82
2022/04/24 06:04:42;;;;;;;3.72;2.85;;;14.70;99.90;;;;;;5011072;28;20270;-82
2022/04/24 06:07:07;;;;;;;3.85;2.45;;;14.80;99.90;;;;;;5028911;28;20210;-83
2022/04/24 06:09:33;;;;;;;2.60;2.40;;;14.80;99.90;;;;;;5010206;28;20202;-84
2022/04/24 06:12:00;;;;;;;3.92;2.60;;;15.20;99.90;;;;;;5009833;28;20257;-82
2022/04/24 06:14:26;;;;;;;2.97;2.70;;;15.30;99.90;;;;;;5009802;28;20201;-84
2022/04/24 06:16:52;;;;;;;3.75;2.53;;;15.30;99.90;;;;;;5008112;28;20206;-84
2022/04/24 06:19:18;;;;;;;3.35;2.72;;;15.20;99.90;;;;;;5027082;28;20174;-81
2022/04/24 06:21:44;;;;;;;3.55;2.55;;;15.20;99.90;;;;;;5009437;28;20260;-81
2022/04/24 06:24:09;;;;;;;3.35;2.60;;;15.20;99.90;;;;;;5009794;28;20185;-81
2022/04/24 06:26:35;;;;;;;3.20;2.75;;;15.10;99.90;;;;;;5027185;28;20269;-83
2022/04/24 06:29:01;;;;;;;3.90;2.63;;;14.80;99.90;;;;;;5027439;28;20649;-81
2022/04/24 06:31:27;;;;;;;3.70;2.58;;;14.30;99.90;;;;;;5009470;28;20230;-81
2022/04/24 06:33:52;;;;;;;3.17;2.47;;;13.60;99.90;;;;;;5012632;28;20209;-85
2022/04/24 06:36:18;;;;;;;3.15;2.53;;;13.30;99.90;;;;;;5011886;28;20664;-81
2022/04/24 06:38:44;;;;;;;2.78;2.42;;;13.00;99.90;;;;;;5028515;28;20202;-83
2022/04/24 06:41:09;;;;;;;4.43;2.50;;;12.80;99.90;;;;;;5010067;28;20205;-82
2022/04/24 06:43:35;;;;;;;2.95;2.47;;;12.70;99.90;;;;;;5010667;28;20190;-83
2022/04/24 06:46:01;;;;;;;2.53;2.33;;;13.00;99.90;;;;;;5010556;28;20218;-83
2022/04/24 06:48:26;;;;;;;2.83;2.30;;;13.10;99.90;;;;;;5009714;28;20178;-82
2022/04/24 06:50:52;;;;;;;3.40;2.90;;;13.00;99.90;;;;;;5010086;28;20202;-83
2022/04/24 06:53:20;;;;;;;3.45;2.70;;;13.00;99.90;;;;;;5009528;28;20179;-81
2022/04/24 06:55:50;;;;;;;3.63;2.65;;;12.80;99.90;;;;;;5009630;28;20748;-83
2022/04/24 06:58:18;;;;;;;2.72;2.53;;;12.50;99.90;;;;;;5009996;28;20187;-81
2022/04/24 07:00:45;;;;;;;3.55;2.72;;;12.40;99.90;;;;;;5027539;28;20202;-83
2022/04/24 07:03:21;;;;;;;3.45;2.90;;;12.20;99.90;;;;;;5010474;28;20179;-81
2022/04/24 07:05:47;;;;;;;2.80;2.53;;;11.70;99.90;;;;;;5027567;28;20177;-81
2022/04/24 07:08:13;;;;;;;3.15;2.72;;;11.50;99.90;;;;;;5027469;28;20179;-81
2022/04/24 07:10:39;;;;;;;3.28;2.85;;;11.60;99.90;;;;;;5008435;28;20202;-81
2022/04/24 07:13:05;;;;;;;3.58;2.75;;;11.60;99.90;;;;;;5010130;28;20709;-80
2022/04/24 07:15:34;;;;;;;3.35;3.05;;;11.70;99.90;;;;;;5009770;28;20202;-81
2022/04/24 07:18:00;;;;;;;4.05;2.53;;;11.80;99.90;;;;;;5010344;28;20279;-81
2022/04/24 07:20:27;;;;;;;4.50;3.08;;;12.00;99.90;;;;;;5028892;28;20290;-81
2022/04/24 07:23:01;;;;;;;3.13;2.75;;;12.20;99.90;;;;;;5009028;28;20262;-81
2022/04/24 07:25:39;;;;;;;5.05;3.53;;;12.50;99.90;;;;;;5026048;28;20187;-81
2022/04/24 07:28:05;;;;;;;3.70;2.65;;;12.50;99.90;;;;;;5009716;28;20183;-81
2022/04/24 07:30:30;;;;;;;3.33;2.83;;;12.40;99.90;;;;;;5009826;28;20265;-81
2022/04/24 07:32:57;;;;;;;3.00;2.70;;;12.40;99.90;;;;;;5010714;28;20285;-82
2022/04/24 07:35:26;;;;;;;3.30;3.00;;;12.60;99.90;;;;;;5026880;28;20210;-81
2022/04/24 07:37:52;;;;;;;3.58;3.28;;;12.70;99.90;;;;;;5008410;28;20202;-82
2022/04/24 07:40:20;;;;;;;4.00;3.60;;;12.70;99.90;;;;;;5007698;28;20202;-82
2022/04/24 07:42:48;;;;;;;4.93;3.35;;;12.90;99.90;;;;;;5008772;28;21008;-81
2022/04/24 07:45:38;;;;;;;3.75;3.28;;;12.80;99.90;;;;;;4999001;28;20210;-81
2022/04/24 07:48:05;;;;;;;4.00;3.40;;;12.70;99.90;;;;;;5015269;28;20243;-81
2022/04/24 07:50:36;;;;;;;4.13;3.10;;;12.60;99.90;;;;;;5004782;28;20305;-83
2022/04/24 07:53:03;;;;;;;3.17;2.88;;;12.80;99.90;;;;;;5006186;28;20663;-80
2022/04/24 07:55:29;;;;;;;4.88;3.67;;;12.90;99.90;;;;;;5005607;28;20768;-83
2022/04/24 07:57:57;;;;;;;3.67;3.33;;;13.00;99.90;;;;;;5005618;28;20193;-82
2022/04/24 08:00:24;;;;;;;3.95;3.10;;;13.10;99.90;;;;;;5006439;28;20199;-81
2022/04/24 08:02:57;;;;;;;5.13;3.72;;;13.30;99.90;;;;;;5012132;28;20317;-82
2022/04/24 08:05:31;;;;;;;5.47;3.60;;;13.30;99.90;;;;;;5033477;28;20394;-83
2022/04/24 08:07:58;;;;;;;4.70;3.47;;;13.30;99.90;;;;;;5014193;28;20558;-83
2022/04/24 08:10:26;;;;;;;3.80;3.47;;;13.50;99.90;;;;;;5012562;28;20210;-83
2022/04/24 08:12:52;;;;;;;4.05;3.50;;;13.50;99.90;;;;;;5011924;28;20186;-83
2022/04/24 08:15:17;;;;;;;3.75;3.45;;;13.60;99.90;;;;;;5012978;28;20533;-81
2022/04/24 08:17:44;;;;;;;4.97;4.10;;;13.70;99.90;;;;;;5013210;28;20694;-82
2022/04/24 08:20:12;;;;;;;3.70;3.30;;;13.70;99.90;;;;;;5031473;28;20718;-81
2022/04/24 08:22:42;;;;;;;5.57;3.75;;;13.70;99.90;;;;;;5031992;28;20178;-82
2022/04/24 08:25:10;;;;;;;5.72;4.93;;;13.80;99.90;;;;;;5030163;28;20534;-81
2022/04/24 08:27:36;;;;;;;5.88;3.33;;;13.90;99.90;;;;;;5030837;28;20179;-84
2022/04/24 08:30:04;;;;;;;5.35;3.67;;;13.80;99.90;;;;;;5031119;28;20251;-81
2022/04/24 08:32:30;;;;;;;3.85;3.30;;;13.80;99.90;;;;;;5013166;28;20252;-84
2022/04/24 08:34:58;;;;;;;4.38;3.78;;;13.60;99.90;;;;;;5012698;28;20183;-84
2022/04/24 08:37:25;;;;;;;4.65;3.63;;;13.60;99.90;;;;;;5012412;28;20593;-82
2022/04/24 08:39:53;;;;;;;5.20;3.70;;;13.60;99.90;;;;;;5011554;28;20194;-83
2022/04/24 08:42:21;;;;;;;5.75;3.50;;;13.60;99.90;;;;;;5012367;28;20497;-82
2022/04/24 08:44:48;;;;;;;4.80;3.53;;;13.30;99.90;;;;;;5010885;28;20182;-82
2022/04/24 08:47:15;;;;;;;5.47;3.65;;;13.50;99.90;;;;;;5011916;28;20186;-81
2022/04/24 08:49:42;;;;;;;4.07;3.67;;;13.30;99.90;;;;;;5030636;28;20183;-83
2022/04/24 08:52:09;;;;;;;7.30;4.35;;;13.40;99.90;;;;;;5012427;28;20313;-83
2022/04/24 08:54:40;;;;;;;5.97;3.42;;;13.30;99.90;;;;;;5030358;28;20187;-82
2022/04/24 08:57:06;;;;;;;4.63;3.72;;;13.50;99.90;;;;;;5011991;28;20588;-81
2022/04/24 08:59:31;;;;;;;6.72;3.75;;;13.60;99.90;;;;;;5030264;28;20175;-82
2022/04/24 09:02:00;;;;;;;5.65;3.70;;;13.50;99.90;;;;;;5012783;28;20202;-81
2022/04/24 09:04:36;;;;;;;5.25;3.63;;;13.20;99.90;;;;;;5012747;28;20331;-81
2022/04/24 09:07:07;;;;;;;4.05;3.65;;;13.30;99.90;;;;;;5012646;28;20231;-82
2022/04/24 09:09:42;;;;;;;4.80;4.03;;;13.50;99.90;;;;;;5012588;28;20183;-82
2022/04/24 09:12:38;;;;;;;4.10;3.67;;;13.90;99.90;;;;;;5011211;28;20620;-83
2022/04/24 09:15:06;;;;;;;4.35;3.55;;;14.20;99.90;;;;;;4996455;28;20205;-81
2022/04/24 09:17:33;;;;;;;5.50;4.35;;;14.30;99.90;;;;;;5027131;28;20179;-83
2022/04/24 09:20:00;;;;;;;5.65;3.90;;;14.40;99.90;;;;;;5009667;28;20221;-82
2022/04/24 09:22:26;;;;;;;5.40;4.30;;;14.30;99.90;;;;;;5009951;28;20394;-82
2022/04/24 09:24:55;;;;;;;7.82;3.85;;;14.30;99.90;;;;;;5009482;28;20183;-83
2022/04/24 09:27:33;;;;;;;4.97;4.47;;;14.40;99.90;;;;;;5009346;28;20254;-82
2022/04/24 09:30:02;;;;;;;7.05;4.38;;;14.10;99.90;;;;;;5008310;28;20285;-82
2022/04/24 09:32:29;;;;;;;5.05;4.32;;;14.30;99.90;;;;;;5009563;28;20187;-81
2022/04/24 09:34:55;;;;;;;5.05;4.40;;;14.20;99.90;;;;;;5008968;28;20190;-81
2022/04/24 09:37:21;;;;;;;4.97;4.20;;;14.10;99.90;;;;;;5008768;28;20368;-83
2022/04/24 09:39:49;;;;;;;4.82;4.25;;;14.20;99.90;;;;;;5008352;28;20186;-81
2022/04/24 09:42:19;;;;;;;6.32;4.68;;;14.10;99.90;;;;;;5026046;28;20690;-81
2022/04/24 09:44:50;;;;;;;5.05;4.45;;;14.30;99.90;;;;;;5026533;28;20194;-83
2022/04/24 09:47:23;;;;;;;5.13;4.18;;;14.60;99.90;;;;;;5012049;28;20543;-83
2022/04/24 09:49:50;;;;;;;5.03;4.53;;;14.60;99.90;;;;;;5012262;28;20182;-83
2022/04/24 09:52:22;;;;;;;4.65;4.15;;;14.90;99.90;;;;;;5013634;28;20199;-83
2022/04/24 09:54:50;;;;;;;6.25;4.35;;;14.90;99.90;;;;;;5011655;28;20219;-84
2022/04/24 09:57:17;;;;;;;7.90;4.28;;;14.70;99.90;;;;;;5029698;28;20676;-84
2022/04/24 09:59:48;;;;;;;5.13;4.25;;;14.60;99.90;;;;;;5029159;28;20855;-84
2022/04/24 10:02:15;;;;;;;6.00;4.75;;;14.70;99.90;;;;;;5029470;28;20862;-84
2022/04/24 10:04:42;;;;;;;6.03;5.43;;;15.00;99.90;;;;;;5012815;28;20266;-83
2022/04/24 10:07:13;;;;;;;6.13;4.65;;;15.00;99.90;;;;;;5011493;28;20796;-83
2022/04/24 10:09:41;;;;;;;5.03;4.53;;;14.80;99.90;;;;;;5012743;28;20194;-83
2022/04/24 10:12:07;;;;;;;5.97;4.82;;;14.70;99.90;;;;;;5029770;28;20349;-83
2022/04/24 10:14:38;;;;;;;6.72;5.07;;;14.60;99.90;;;;;;5012259;28;20210;-84
2022/04/24 10:17:20;;;;;;;5.55;4.47;;;14.80;99.90;;;;;;5009928;28;20214;-83
2022/04/24 10:20:02;;;;;;;5.35;4.78;;;14.90;99.90;;;;;;5011483;28;20179;-84
2022/04/24 10:22:39;;;;;;;5.57;4.45;;;15.40;99.90;;;;;;5012133;28;20190;-82
2022/04/24 10:25:07;;;;;;;9.02;4.57;;;15.20;99.90;;;;;;5009304;28;20178;-84
2022/04/24 10:27:45;;;;;;;4.45;4.05;;;15.30;99.90;;;;;;5011208;28;20183;-84
2022/04/24 10:30:17;;;;;;;6.70;4.68;;;15.10;99.90;;;;;;5011630;28;20222;-83
2022/04/24 10:32:46;;;;;;;5.45;4.82;;;14.90;99.90;;;;;;5010710;28;20187;-83
2022/04/24 10:35:20;;;;;;;5.13;4.63;;;14.90;99.90;;;;;;5029286;28;20631;-83
2022/04/24 10:37:47;;;;;;;6.63;4.95;;;14.60;99.90;;;;;;5027407;28;20190;-83
2022/04/24 10:40:18;;;;;;;5.15;4.43;;;15.00;99.90;;;;;;5026566;28;20205;-82
2022/04/24 10:42:44;;;;;;;5.15;4.60;;;15.30;99.90;;;;;;5006740;28;20197;-82
2022/04/24 10:45:15;;;;;;;6.18;4.50;;;15.40;99.90;;;;;;5006764;28;20756;-82
2022/04/24 10:47:50;;;;;;;5.97;4.30;;;15.70;99.90;;;;;;5007685;28;20238;-83
2022/04/24 10:50:20;;;;;;;5.97;5.10;;;15.50;99.90;;;;;;5005158;28;20597;-81
2022/04/24 10:52:48;;;;;;;6.65;4.90;;;15.50;99.90;;;;;;5006662;28;20202;-82
2022/04/24 10:55:16;;;;;;;5.43;4.68;;;15.50;99.90;;;;;;5005927;28;20596;-82
2022/04/24 10:57:45;;;;;;;6.53;5.88;;;15.50;99.90;;;;;;5006445;28;20182;-83
2022/04/24 11:00:24;;;;;;;8.38;5.13;;;15.30;99.90;;;;;;5023998;28;20258;-81
2022/04/24 11:02:51;;;;;;;6.47;4.78;;;15.20;99.90;;;;;;5006973;28;20187;-84
2022/04/24 11:05:23;;;;;;;5.78;5.18;;;15.60;99.90;;;;;;5009153;28;20179;-82
2022/04/24 11:08:04;;;;;;;6.00;5.30;;;15.40;99.90;;;;;;5008403;28;20525;-81
2022/04/24 11:10:30;;;;;;;8.02;5.28;;;15.10;99.90;;;;;;5009464;28;20217;-82
2022/04/24 11:12:56;;;;;;;7.38;5.13;;;15.20;99.90;;;;;;5007304;28;20178;-81
2022/04/24 11:15:22;;;;;;;9.65;5.15;;;15.20;99.90;;;;;;5024546;28;20175;-81
2022/04/24 11:17:48;;;;;;;7.53;5.40;;;15.30;99.90;;;;;;5006759;28;20273;-80
2022/04/24 11:20:17;;;;;;;8.10;5.03;;;15.40;99.90;;;;;;5006355;28;20285;-82
2022/04/24 11:22:53;;;;;;;6.30;5.20;;;15.20;99.90;;;;;;5024605;28;20455;-82
2022/04/24 11:25:22;;;;;;;6.25;5.65;;;15.20;99.90;;;;;;5006260;28;20252;-81
2022/04/24 11:28:01;;;;;;;5.97;5.38;;;15.40;99.90;;;;;;5007335;28;20645;-81
2022/04/24 11:30:33;;;;;;;8.57;6.05;;;15.70;99.90;;;;;;5024679;28;20210;-82
2022/04/24 11:33:06;;;;;;;9.75;5.53;;;15.50;99.90;;;;;;5025457;28;20182;-81
2022/04/24 11:35:36;;;;;;;6.10;5.13;;;15.60;99.90;;;;;;5005029;28;20293;-82
2022/04/24 11:38:03;;;;;;;8.18;5.63;;;15.70;99.90;;;;;;5023375;28;20349;-82
2022/04/24 11:40:30;;;;;;;5.57;4.63;;;15.50;99.90;;;;;;5007905;28;20202;-80
2022/04/24 11:43:06;;;;;;;9.40;6.00;;;15.00;99.90;;;;;;5007268;28;20719;-83
2022/04/24 11:51:15;;;;;;;7.00;5.72;;;14.80;99.90;;;;;;5027528;28;20321;-82
2022/04/24 11:53:42;;;;;;;5.97;5.10;;;14.90;99.90;;;;;;5009881;28;20794;-82
2022/04/24 11:56:09;;;;;;;7.03;5.53;;;14.70;99.90;;;;;;5009200;28;20211;-82
2022/04/24 11:58:37;;;;;;;6.65;5.30;;;14.60;99.90;;;;;;5009416;28;20182;-82
2022/04/24 12:01:05;;;;;;;8.13;6.03;;;14.80;99.90;;;;;;5026866;28;20205;-81
2022/04/24 12:03:32;;;;;;;7.15;5.20;;;14.90;99.90;;;;;;5010009;28;20175;-81
2022/04/24 12:06:11;;;;;;;5.55;4.85;;;15.10;99.90;;;;;;5027586;28;20194;-81
2022/04/24 12:08:49;;;;;;;7.30;5.20;;;15.60;99.90;;;;;;5009212;28;20281;-82
2022/04/24 12:11:31;;;;;;;5.47;4.38;;;15.50;99.90;;;;;;5026664;28;20265;-82
2022/04/24 12:13:59;;;;;;;6.25;5.65;;;14.90;99.90;;;;;;5027149;28;20192;-82
2022/04/24 12:16:24;;;;;;;7.20;5.43;;;14.90;99.90;;;;;;5024720;28;20207;-82
2022/04/24 12:18:58;;;;;;;6.65;5.38;;;15.00;99.90;;;;;;5008784;28;20676;-82
2022/04/24 12:21:24;;;;;;;6.15;5.55;;;14.80;99.90;;;;;;5024933;28;20230;-80
2022/04/24 12:23:54;;;;;;;6.82;5.45;;;14.80;99.90;;;;;;5009969;28;20178;-81
2022/04/24 12:26:20;;;;;;;5.90;5.15;;;15.00;99.90;;;;;;5008581;28;20175;-82
2022/04/24 12:28:47;;;;;;;7.88;5.05;;;15.00;99.90;;;;;;5008664;28;20942;-82
2022/04/24 12:31:39;;;;;;;7.05;5.18;;;15.00;99.90;;;;;;5009223;28;20226;-80
2022/04/24 12:34:05;;;;;;;6.95;5.55;;;15.10;99.90;;;;;;5005038;28;20225;-82
2022/04/24 12:36:30;;;;;;;6.60;5.28;;;15.30;99.90;;;;;;5009162;28;20238;-81
2022/04/24 12:39:03;;;;;;;5.30;4.70;;;15.60;99.90;;;;;;5008963;28;21213;-82
2022/04/24 12:41:30;;;;;;;8.75;5.50;;;15.50;99.90;;;;;;5026400;28;20206;-80
2022/04/24 12:44:03;;;;;;;5.05;4.55;;;15.60;99.90;;;;;;5026544;28;21219;-82
2022/04/24 12:46:29;;;;;;;8.98;5.18;;;15.50;99.90;;;;;;5025916;28;20275;-82
2022/04/24 12:48:56;;;;;;;8.38;4.82;;;15.50;99.90;;;;;;5013148;28;20190;-81
2022/04/24 12:51:23;;;;;;;8.32;5.28;;;15.20;99.90;;;;;;5012729;28;20199;-80
2022/04/24 12:53:50;;;;;;;7.30;4.72;;;15.20;99.90;;;;;;5012290;28;20195;-82
2022/04/24 12:56:16;;;;;;;6.65;4.63;;;15.20;99.90;;;;;;5012250;28;20256;-82
2022/04/24 12:58:42;;;;;;;6.00;4.80;;;15.10;99.90;;;;;;5030769;28;20206;-81